createdAt,value
2023-02-27T00:02:31.610Z,0.17
2023-02-27T00:05:58.777Z,0.19
2023-02-27T00:09:27.531Z,0.20
2023-02-27T00:12:54.680Z,0.20
2023-02-27T00:16:22.234Z,0.19
2023-02-27T00:19:49.608Z,0.16
2023-02-27T00:23:17.116Z,0.14
2023-02-27T00:26:44.239Z,0.10
2023-02-27T00:30:16.383Z,0.07
2023-02-27T00:33:43.507Z,0.03
2023-02-27T00:37:11.138Z,0.00
2023-02-27T00:40:38.741Z,-0.03
2023-02-27T00:44:06.117Z,-0.07
2023-02-27T00:47:33.405Z,-0.09
2023-02-27T00:51:01.110Z,-0.11
2023-02-27T00:54:31.788Z,-0.13
2023-02-27T00:57:59.285Z,-0.15
2023-02-27T01:01:27.194Z,-0.15
2023-02-27T01:04:57.071Z,-0.14
2023-02-27T01:08:24.557Z,-0.11
2023-02-27T01:11:51.876Z,-0.06
2023-02-27T01:15:19.234Z,0.01
2023-02-27T01:18:46.859Z,0.08
2023-02-27T01:22:16.681Z,0.15
2023-02-27T01:25:44.242Z,0.23
2023-02-27T01:29:31.562Z,0.30
2023-02-27T01:33:00.137Z,0.34
2023-02-27T01:36:29.207Z,0.36
2023-02-27T01:39:56.803Z,0.35
2023-02-27T01:44:31.047Z,0.31
2023-02-27T01:48:04.198Z,0.23
2023-02-27T01:51:39.356Z,0.17
2023-02-27T01:55:08.721Z,0.12
2023-02-27T01:58:36.004Z,0.06
2023-02-27T02:02:06.547Z,0.01
2023-02-27T02:05:34.819Z,-0.02
2023-02-27T02:09:03.354Z,-0.07
2023-02-27T02:12:34.867Z,-0.11
2023-02-27T02:16:16.096Z,-0.14
2023-02-27T02:20:28.787Z,-0.14
2023-02-27T02:24:20.048Z,-0.15
2023-02-27T02:28:01.798Z,-0.15
2023-02-27T02:32:00.635Z,-0.13
2023-02-27T02:36:12.477Z,-0.09
2023-02-27T02:40:17.810Z,-0.06
2023-02-27T02:43:55.954Z,-0.00
2023-02-27T02:47:32.640Z,0.07
2023-02-27T02:51:06.149Z,0.13
2023-02-27T02:54:41.167Z,0.18
2023-02-27T02:58:16.549Z,0.23
2023-02-27T03:01:49.784Z,0.27
2023-02-27T03:05:24.212Z,0.28
2023-02-27T03:08:58.911Z,0.28
2023-02-27T03:12:29.897Z,0.26
2023-02-27T03:16:02.570Z,0.22
2023-02-27T03:19:34.171Z,0.18
2023-02-27T03:23:06.170Z,0.15
2023-02-27T03:26:37.723Z,0.12
2023-02-27T03:30:10.698Z,0.10
2023-02-27T03:33:40.193Z,0.08
2023-02-27T03:37:14.348Z,0.07
2023-02-27T03:40:47.720Z,0.04
2023-02-27T03:44:25.404Z,0.01
2023-02-27T03:47:52.918Z,-0.02
2023-02-27T03:51:22.237Z,-0.05
2023-02-27T03:54:54.604Z,-0.07
2023-02-27T03:58:21.127Z,-0.09
2023-02-27T04:01:48.535Z,-0.08
2023-02-27T04:05:15.150Z,-0.06
2023-02-27T04:09:01.682Z,-0.01
2023-02-27T04:12:46.055Z,0.07
2023-02-27T04:16:46.195Z,0.12
2023-02-27T04:20:24.349Z,0.18
2023-02-27T04:23:58.966Z,0.19
2023-02-27T04:27:33.597Z,0.20
2023-02-27T04:31:13.430Z,0.22
2023-02-27T04:34:44.965Z,0.19
2023-02-27T04:38:21.117Z,0.16
2023-02-27T04:41:51.900Z,0.13
2023-02-27T04:45:23.467Z,0.10
2023-02-27T04:48:55.611Z,0.08
2023-02-27T04:52:26.661Z,0.03
2023-02-27T04:55:57.830Z,-0.01
2023-02-27T04:59:30.304Z,-0.04
2023-02-27T05:03:01.808Z,-0.04
2023-02-27T05:06:32.950Z,-0.04
2023-02-27T05:10:04.533Z,-0.05
2023-02-27T05:13:36.017Z,-0.06
2023-02-27T05:17:09.698Z,-0.07
2023-02-27T05:20:44.319Z,-0.06
2023-02-27T05:24:19.965Z,-0.04
2023-02-27T05:27:50.683Z,0.01
2023-02-27T05:31:25.528Z,0.05
2023-02-27T05:34:58.706Z,0.11
2023-02-27T05:38:31.771Z,0.21
2023-02-27T05:42:03.401Z,0.30
2023-02-27T05:45:34.965Z,0.39
2023-02-27T05:49:07.514Z,0.45
2023-02-27T05:52:36.178Z,0.49
2023-02-27T05:56:06.640Z,0.51
2023-02-27T05:59:39.222Z,0.48
2023-02-27T06:03:06.647Z,0.47
2023-02-27T06:06:34.034Z,0.44
2023-02-27T06:10:00.905Z,0.44
2023-02-27T06:13:28.045Z,0.43
2023-02-27T06:16:55.224Z,0.41
2023-02-27T06:20:22.253Z,0.40
2023-02-27T06:23:48.806Z,0.38
2023-02-27T06:27:15.753Z,0.38
2023-02-27T06:30:42.998Z,0.38
2023-02-27T06:34:11.254Z,0.38
2023-02-27T06:37:38.532Z,0.38
2023-02-27T06:41:05.601Z,0.40
2023-02-27T06:44:32.177Z,0.43
2023-02-27T06:47:59.711Z,0.47
2023-02-27T06:51:26.747Z,0.53
2023-02-27T06:54:54.899Z,0.62
2023-02-27T06:58:21.896Z,0.73
2023-02-27T07:01:51.631Z,0.84
2023-02-27T07:05:18.471Z,0.95
2023-02-27T07:09:00.917Z,1.06
2023-02-27T07:12:32.906Z,1.18
2023-02-27T07:15:59.862Z,1.24
2023-02-27T07:19:28.232Z,1.21
2023-02-27T07:22:54.788Z,1.23
2023-02-27T07:26:21.445Z,1.25
2023-02-27T07:29:48.508Z,1.28
2023-02-27T07:33:14.997Z,1.29
2023-02-27T07:36:42.305Z,1.31
2023-02-27T07:40:12.123Z,1.33
2023-02-27T07:43:39.003Z,1.35
2023-02-27T07:47:06.997Z,1.36
2023-02-27T07:50:34.053Z,1.39
2023-02-27T07:54:02.507Z,1.40
2023-02-27T07:57:30.312Z,1.43
2023-02-27T08:00:58.528Z,1.46
2023-02-27T08:04:25.544Z,1.49
2023-02-27T08:07:53.218Z,1.55
2023-02-27T08:11:20.121Z,1.59
2023-02-27T08:14:47.168Z,1.64
2023-02-27T08:18:14.327Z,1.74
2023-02-27T08:21:41.017Z,1.85
2023-02-27T08:25:11.134Z,1.96
2023-02-27T08:28:38.005Z,2.05
2023-02-27T08:32:05.950Z,2.17
2023-02-27T08:35:32.951Z,2.25
2023-02-27T08:38:59.754Z,2.32
2023-02-27T08:42:27.040Z,2.38
2023-02-27T08:45:54.266Z,2.41
2023-02-27T08:49:23.162Z,2.46
2023-02-27T08:52:50.356Z,2.40
2023-02-27T08:56:17.144Z,2.35
2023-02-27T08:59:43.765Z,2.36
2023-02-27T09:03:11.607Z,2.42
2023-02-27T09:06:39.335Z,2.51
2023-02-27T09:10:07.539Z,2.61
2023-02-27T09:13:34.831Z,2.69
2023-02-27T09:17:01.617Z,2.74
2023-02-27T09:20:28.762Z,2.80
2023-02-27T09:24:02.634Z,2.80
2023-02-27T09:27:34.001Z,2.81
2023-02-27T09:31:03.506Z,2.87
2023-02-27T09:34:31.079Z,2.93
2023-02-27T09:38:00.737Z,2.99
2023-02-27T09:41:43.660Z,3.03
2023-02-27T09:45:19.828Z,3.11
2023-02-27T09:48:52.822Z,3.13
2023-02-27T09:52:20.127Z,3.19
2023-02-27T09:55:48.514Z,3.31
2023-02-27T09:59:27.151Z,3.37
2023-02-27T10:03:02.440Z,3.45
2023-02-27T10:06:35.685Z,3.55
2023-02-27T10:10:20.712Z,3.64
2023-02-27T10:14:00.757Z,3.72
2023-02-27T10:17:30.651Z,3.79
2023-02-27T10:21:00.614Z,3.86
2023-02-27T10:24:32.072Z,3.94
2023-02-27T10:28:04.219Z,3.97
2023-02-27T10:31:36.272Z,3.91
2023-02-27T10:35:12.526Z,3.90
2023-02-27T10:38:44.682Z,3.97
2023-02-27T10:42:13.868Z,4.03
2023-02-27T10:45:40.531Z,4.15
2023-02-27T10:49:19.066Z,4.25
2023-02-27T10:52:53.930Z,4.35
2023-02-27T10:56:26.953Z,4.41
2023-02-27T10:59:54.408Z,4.47
2023-02-27T11:03:26.684Z,4.48
2023-02-27T11:06:56.327Z,4.47
2023-02-27T11:10:25.557Z,4.55
2023-02-27T11:13:52.267Z,4.56
2023-02-27T11:17:28.889Z,4.70
2023-02-27T11:20:56.919Z,4.92
2023-02-27T11:24:23.616Z,4.90
2023-02-27T11:27:52.381Z,4.79
2023-02-27T11:31:23.053Z,4.68
2023-02-27T11:34:53.638Z,4.59
2023-02-27T11:38:24.983Z,4.54
2023-02-27T11:41:53.053Z,4.41
2023-02-27T11:46:04.905Z,4.34
2023-02-27T11:49:35.678Z,4.48
2023-02-27T11:53:12.623Z,4.50
2023-02-27T11:56:43.586Z,4.48
2023-02-27T12:00:21.891Z,4.48
2023-02-27T12:03:52.724Z,4.43
2023-02-27T12:07:24.592Z,4.43
2023-02-27T12:11:12.343Z,4.43
2023-02-27T12:14:48.909Z,4.43
2023-02-27T12:18:23.312Z,4.40
2023-02-27T12:21:55.384Z,4.34
2023-02-27T12:25:33.600Z,4.25
2023-02-27T12:29:05.327Z,4.23
2023-02-27T12:32:43.142Z,4.21
2023-02-27T12:36:14.266Z,4.18
2023-02-27T12:39:43.594Z,4.15
2023-02-27T12:43:24.578Z,4.12
2023-02-27T12:47:02.166Z,4.12
2023-02-27T12:50:36.772Z,4.14
2023-02-27T12:54:24.966Z,4.14
2023-02-27T12:58:09.517Z,4.18
2023-02-27T13:01:47.187Z,4.26
2023-02-27T13:05:28.428Z,4.35
2023-02-27T13:09:09.084Z,4.42
2023-02-27T13:12:43.120Z,4.47
2023-02-27T13:16:15.464Z,4.51
2023-02-27T13:19:48.752Z,4.77
2023-02-27T13:23:20.625Z,4.98
2023-02-27T13:26:51.968Z,5.18
2023-02-27T13:30:28.318Z,5.28
2023-02-27T13:34:04.637Z,5.38
2023-02-27T13:37:54.046Z,5.35
2023-02-27T13:41:40.904Z,5.28
2023-02-27T13:45:29.824Z,5.51
2023-02-27T13:48:57.437Z,5.81
2023-02-27T13:52:33.066Z,6.15
2023-02-27T13:56:23.252Z,6.43
2023-02-27T13:59:58.403Z,6.67
2023-02-27T14:03:27.992Z,6.92
2023-02-27T14:07:01.325Z,7.05
2023-02-27T14:10:31.578Z,7.24
2023-02-27T14:14:09.189Z,7.15
2023-02-27T14:17:46.644Z,6.89
2023-02-27T14:21:13.692Z,6.50
2023-02-27T14:24:52.793Z,6.21
2023-02-27T14:28:28.493Z,5.96
2023-02-27T14:31:57.607Z,5.75
2023-02-27T14:35:25.695Z,5.61
2023-02-27T14:38:55.785Z,5.47
2023-02-27T14:42:46.181Z,5.35
2023-02-27T14:46:24.272Z,5.32
2023-02-27T14:49:52.983Z,5.45
2023-02-27T14:53:28.764Z,5.52
2023-02-27T14:57:00.983Z,5.48
2023-02-27T15:00:41.189Z,5.50
2023-02-27T15:04:17.169Z,5.43
2023-02-27T15:07:49.465Z,5.32
2023-02-27T15:11:21.302Z,5.28
2023-02-27T15:14:53.933Z,5.31
2023-02-27T15:18:24.516Z,5.30
2023-02-27T15:21:54.168Z,5.20
2023-02-27T15:25:47.613Z,5.16
2023-02-27T15:29:25.170Z,5.04
2023-02-27T15:32:55.638Z,4.89
2023-02-27T15:36:28.181Z,4.77
2023-02-27T15:39:56.693Z,4.69
2023-02-27T15:43:27.760Z,4.58
2023-02-27T15:46:56.036Z,4.46
2023-02-27T15:50:33.869Z,4.33
2023-02-27T15:54:02.114Z,4.22
2023-02-27T15:57:30.817Z,4.15
2023-02-27T16:01:02.727Z,4.05
2023-02-27T16:04:31.441Z,3.95
2023-02-27T16:07:58.079Z,3.87
2023-02-27T16:11:27.149Z,3.78
2023-02-27T16:14:55.024Z,3.69
2023-02-27T16:18:33.128Z,3.60
2023-02-27T16:22:20.070Z,3.51
2023-02-27T16:26:04.642Z,3.43
2023-02-27T16:29:37.178Z,3.34
2023-02-27T16:33:06.320Z,3.29
2023-02-27T16:36:35.042Z,3.26
2023-02-27T16:40:01.856Z,3.20
2023-02-27T16:43:29.580Z,3.14
2023-02-27T16:46:59.446Z,3.09
2023-02-27T16:50:33.250Z,3.02
2023-02-27T16:54:01.121Z,2.95
2023-02-27T16:57:28.458Z,2.88
2023-02-27T17:00:56.061Z,2.75
2023-02-27T17:04:25.826Z,2.63
2023-02-27T17:07:54.910Z,2.52
2023-02-27T17:11:21.544Z,2.38
2023-02-27T17:14:48.184Z,2.24
2023-02-27T17:18:15.207Z,2.13
2023-02-27T17:21:42.581Z,2.04
2023-02-27T17:25:11.370Z,1.97
2023-02-27T17:28:40.875Z,1.91
2023-02-27T17:32:08.156Z,1.85
2023-02-27T17:35:35.117Z,1.79
2023-02-27T17:39:03.873Z,1.71
2023-02-27T17:42:30.861Z,1.60
2023-02-27T17:45:58.018Z,1.51
2023-02-27T17:49:24.787Z,1.43
2023-02-27T17:52:51.574Z,1.38
2023-02-27T17:56:18.686Z,1.32
2023-02-27T17:59:45.930Z,1.24
2023-02-27T18:03:13.822Z,1.17
2023-02-27T18:06:41.185Z,1.09
2023-02-27T18:10:11.292Z,1.03
2023-02-27T18:13:39.061Z,0.96
2023-02-27T18:17:12.337Z,0.90
2023-02-27T18:20:40.838Z,0.84
2023-02-27T18:24:09.773Z,0.78
2023-02-27T18:27:36.656Z,0.74
2023-02-27T18:31:08.968Z,0.68
2023-02-27T18:34:36.300Z,0.63
2023-02-27T18:38:04.188Z,0.58
2023-02-27T18:41:33.386Z,0.53
2023-02-27T18:45:00.347Z,0.49
2023-02-27T18:48:35.014Z,0.45
2023-02-27T18:52:03.579Z,0.40
2023-02-27T18:55:32.559Z,0.34
2023-02-27T18:59:05.479Z,0.29
2023-02-27T19:02:31.908Z,0.24
2023-02-27T19:06:23.679Z,0.18
2023-02-27T19:09:51.958Z,0.13
2023-02-27T19:13:19.309Z,0.08
2023-02-27T19:16:47.322Z,0.02
2023-02-27T19:20:17.429Z,-0.02
2023-02-27T19:23:44.816Z,-0.05
2023-02-27T19:27:11.906Z,-0.09
2023-02-27T19:30:41.457Z,-0.11
2023-02-27T19:34:08.603Z,-0.13
2023-02-27T19:37:35.830Z,-0.14
2023-02-27T19:41:04.976Z,-0.13
2023-02-27T19:44:32.263Z,-0.09
2023-02-27T19:47:59.255Z,-0.04
2023-02-27T19:51:27.110Z,0.04
2023-02-27T19:54:56.800Z,0.10
2023-02-27T19:58:23.733Z,0.15
2023-02-27T20:01:50.412Z,0.18
2023-02-27T20:05:19.559Z,0.19
2023-02-27T20:08:46.640Z,0.19
2023-02-27T20:12:14.464Z,0.18
2023-02-27T20:15:42.610Z,0.16
2023-02-27T20:19:11.075Z,0.11
2023-02-27T20:22:38.676Z,0.06
2023-02-27T20:26:24.690Z,-0.02
2023-02-27T20:29:55.303Z,-0.08
2023-02-27T20:33:22.627Z,-0.12
2023-02-27T20:36:54.568Z,-0.16
2023-02-27T20:40:23.116Z,-0.20
2023-02-27T20:43:50.391Z,-0.26
2023-02-27T20:47:17.647Z,-0.33
2023-02-27T20:50:44.611Z,-0.38
2023-02-27T20:54:16.811Z,-0.43
2023-02-27T20:57:43.581Z,-0.45
2023-02-27T21:01:13.553Z,-0.48
2023-02-27T21:04:43.787Z,-0.53
2023-02-27T21:08:10.832Z,-0.60
2023-02-27T21:11:38.176Z,-0.65
2023-02-27T21:15:05.980Z,-0.67
2023-02-27T21:18:33.796Z,-0.71
2023-02-27T21:22:01.816Z,-0.74
2023-02-27T21:25:29.597Z,-0.77
2023-02-27T21:29:05.362Z,-0.77
2023-02-27T21:32:34.238Z,-0.79
2023-02-27T21:36:01.043Z,-0.82
2023-02-27T21:39:34.509Z,-0.86
2023-02-27T21:43:01.540Z,-0.90
2023-02-27T21:46:29.429Z,-0.92
2023-02-27T21:49:59.599Z,-0.92
2023-02-27T21:53:27.843Z,-0.91
2023-02-27T21:56:54.882Z,-0.89
2023-02-27T22:00:28.897Z,-0.84
2023-02-27T22:03:59.414Z,-0.76
2023-02-27T22:07:29.368Z,-0.71
2023-02-27T22:11:01.356Z,-0.66
2023-02-27T22:14:28.789Z,-0.64
2023-02-27T22:17:57.078Z,-0.61
2023-02-27T22:21:27.864Z,-0.61
2023-02-27T22:24:55.758Z,-0.61
2023-02-27T22:28:23.271Z,-0.70
2023-02-27T22:31:50.055Z,-0.74
2023-02-27T22:35:19.290Z,-0.80
2023-02-27T22:38:46.591Z,-0.85
2023-02-27T22:42:16.751Z,-0.91
2023-02-27T22:45:50.353Z,-0.96
2023-02-27T22:49:20.453Z,-1.02
2023-02-27T22:52:48.006Z,-1.07
2023-02-27T22:56:17.324Z,-1.14
2023-02-27T22:59:47.453Z,-1.21
2023-02-27T23:03:14.711Z,-1.27
2023-02-27T23:06:44.161Z,-1.32
2023-02-27T23:10:13.651Z,-1.36
2023-02-27T23:13:41.490Z,-1.41
2023-02-27T23:17:09.420Z,-1.46
2023-02-27T23:20:43.133Z,-1.51
2023-02-27T23:24:17.627Z,-1.55
2023-02-27T23:27:45.487Z,-1.61
2023-02-27T23:31:13.831Z,-1.65
2023-02-27T23:34:49.556Z,-1.68
2023-02-27T23:38:17.207Z,-1.71
2023-02-27T23:41:43.787Z,-1.71
2023-02-27T23:45:30.256Z,-1.72
2023-02-27T23:48:57.814Z,-1.76
2023-02-27T23:52:24.549Z,-1.78
2023-02-27T23:55:52.147Z,-1.79
2023-02-27T23:59:19.019Z,-1.77
